Rickenbacker International Airport
KLCK : now visible

Airfield :











YOU CAN JOIN US ON...

 
LOGIN :

Register | Disclaimer

   EN    FR    IT 

 









Legend :    VFR   Marginal VFR   IFR   Intensive IFR   Very Intensive IFR
Visi :
Ceiling :
>= 8 km
>= 3000ft
5 to 8 km
1000 to 3000 ft
1500m to 5 km
500 to 1000 ft
800 to 1500m
200 to 500 ft
< 800m
< 200 ft
Symbols :   Thunderstorms  Fog  Heavy snow  Heavy precipitations  Wind > 20 kt






- Airport Elevation : 744 ft


KLCK - Rickenbacker International

CURRENT METAR :
  • 212355Z AUTO 30006KT 10SM BKN060 09/M02 A3010 RMK AO2 T00891022 10104 20083

EXPIRED METARs :
  • 212255Z AUTO 31008KT 10SM SCT060 10/M03 A3009 RMK AO2 T00971030
  • 212155Z AUTO 29007G14KT 10SM BKN050 10/M03 A3009 RMK AO2 T01011027
  • 212055Z AUTO 29009KT 10SM BKN050 10/M02 A3010 RMK AO2 T01001021
  • 211955Z AUTO 28009KT 10SM OVC050 09/M02 A3012 RMK AO2 T00921023
  • 211855Z AUTO 30009KT 10SM OVC050 09/M02 A3012 RMK AO2 T00881025

TAF KLCK
Valid from the 22 at 00:00 until the 23 at 00:00 UTC


212320Z 2200/2224 32008KT P6SM SCT050
FM220200 VRB03KT P6SM SKC
FM221500 25008KT P6SM SCT050
KZID FIR / North America



MET'MAP, your aeronautical weather chart ! - Copyright ORBIFLY December 2007 - Disclaimer

ORBIFLY MET'MAP TEAM :

Programming & Development : Alexandra Zaïnal
Original concept : Baudouin d'Aumeries
Technical & hardware support : Manuel Goepfert
Assistance : Marc-Olivier Méhu




SOURCES & CREDITS :

   NOAA       Earth
Advisory